createdAt,value
2019-05-20T00:00:53.219Z,27.32
2019-05-20T00:02:57.173Z,26.82
2019-05-20T00:05:02.743Z,25.17
2019-05-20T00:07:06.841Z,24.80
2019-05-20T00:09:11.037Z,24.43
2019-05-20T00:11:15.143Z,24.72
2019-05-20T00:13:18.977Z,25.72
2019-05-20T00:15:22.944Z,25.45
2019-05-20T00:17:28.375Z,26.25
2019-05-20T00:19:33.719Z,25.82
2019-05-20T00:21:37.557Z,26.90
2019-05-20T00:23:42.754Z,27.15
2019-05-20T00:25:46.672Z,29.42
2019-05-20T00:27:50.794Z,36.15
2019-05-20T00:29:54.796Z,28.38
2019-05-20T00:31:58.906Z,24.63
2019-05-20T00:34:02.931Z,26.77
2019-05-20T00:36:06.838Z,26.60
2019-05-20T00:38:10.757Z,24.25
2019-05-20T00:40:14.753Z,24.05
2019-05-20T00:42:18.740Z,25.85
2019-05-20T00:44:22.859Z,28.47
2019-05-20T00:46:26.759Z,25.57
2019-05-20T00:48:30.660Z,29.30
2019-05-20T00:50:35.167Z,24.50
2019-05-20T00:52:39.294Z,27.62
2019-05-20T00:54:43.199Z,28.20
2019-05-20T00:56:48.944Z,23.98
2019-05-20T00:58:54.340Z,27.30
2019-05-20T01:01:21.001Z,30.00
2019-05-20T01:03:26.487Z,29.50
2019-05-20T01:05:33.188Z,27.65
2019-05-20T01:07:37.194Z,27.05
2019-05-20T01:09:41.054Z,28.40
2019-05-20T01:11:45.108Z,28.62
2019-05-20T01:13:50.185Z,29.70
2019-05-20T01:15:54.146Z,28.52
2019-05-20T01:17:58.154Z,26.20
2019-05-20T01:20:02.139Z,27.73
2019-05-20T01:22:05.949Z,23.83
2019-05-20T01:24:09.878Z,28.25
2019-05-20T01:26:15.877Z,28.15
2019-05-20T01:28:25.667Z,25.82
2019-05-20T01:30:29.820Z,25.25
2019-05-20T01:32:33.859Z,28.07
2019-05-20T01:34:37.835Z,26.77
2019-05-20T01:36:41.800Z,24.72
2019-05-20T01:38:45.809Z,27.50
2019-05-20T01:40:49.856Z,26.55
2019-05-20T01:42:53.926Z,27.75
2019-05-20T01:44:59.576Z,27.93
2019-05-20T01:47:03.494Z,26.87
2019-05-20T01:49:08.858Z,27.90
2019-05-20T01:51:12.701Z,29.82
2019-05-20T01:53:16.570Z,31.75
2019-05-20T01:55:23.297Z,30.72
2019-05-20T01:57:27.288Z,33.30
2019-05-20T01:59:31.414Z,26.12
2019-05-20T02:01:35.628Z,28.45
2019-05-20T02:03:40.729Z,26.05
2019-05-20T02:05:44.715Z,23.38
2019-05-20T02:07:48.679Z,26.57
2019-05-20T02:09:52.580Z,23.27
2019-05-20T02:11:56.484Z,28.38
2019-05-20T02:14:01.946Z,25.60
2019-05-20T02:16:07.358Z,26.45
2019-05-20T02:18:11.243Z,27.30
2019-05-20T02:20:17.176Z,26.52
2019-05-20T02:22:20.864Z,28.10
2019-05-20T02:24:25.572Z,29.20
2019-05-20T02:26:29.641Z,25.88
2019-05-20T02:28:33.530Z,25.62
2019-05-20T02:30:37.884Z,25.90
2019-05-20T02:32:41.890Z,24.60
2019-05-20T02:34:46.204Z,24.90
2019-05-20T02:36:50.450Z,24.52
2019-05-20T02:38:54.343Z,25.80
2019-05-20T02:40:58.226Z,24.12
2019-05-20T02:43:02.335Z,23.98
2019-05-20T02:45:09.207Z,27.50
2019-05-20T02:47:13.083Z,23.95
2019-05-20T02:49:17.350Z,25.17
2019-05-20T02:51:22.994Z,23.12
2019-05-20T02:53:26.982Z,27.85
2019-05-20T02:55:30.987Z,23.75
2019-05-20T02:57:34.995Z,25.27
2019-05-20T02:59:39.210Z,24.75
2019-05-20T03:01:43.168Z,26.85
2019-05-20T03:03:47.223Z,26.42
2019-05-20T03:05:51.107Z,30.68
2019-05-20T03:07:57.991Z,30.17
2019-05-20T03:10:01.870Z,27.98
2019-05-20T03:12:05.882Z,29.15
2019-05-20T03:14:10.183Z,26.05
2019-05-20T03:16:15.754Z,32.95
2019-05-20T03:18:20.093Z,32.83
2019-05-20T03:20:24.201Z,30.23
2019-05-20T03:22:28.117Z,31.33
2019-05-20T03:24:32.113Z,26.40
2019-05-20T03:26:36.021Z,30.55
2019-05-20T03:28:39.914Z,27.10
2019-05-20T03:30:44.589Z,27.02
2019-05-20T03:32:48.545Z,28.65
2019-05-20T03:34:59.913Z,30.85
2019-05-20T03:37:02.837Z,31.00
2019-05-20T03:39:07.528Z,25.75
2019-05-20T03:41:12.878Z,27.98
2019-05-20T03:43:16.987Z,27.13
2019-05-20T03:45:21.003Z,28.98
2019-05-20T03:47:25.016Z,26.62
2019-05-20T03:49:29.022Z,30.43
2019-05-20T03:51:32.918Z,29.57
2019-05-20T03:53:36.828Z,25.10
2019-05-20T03:55:40.836Z,27.15
2019-05-20T03:57:44.938Z,29.52
2019-05-20T03:59:48.827Z,27.48
2019-05-20T04:01:52.810Z,26.70
2019-05-20T04:03:56.863Z,27.02
2019-05-20T04:06:00.863Z,24.67
2019-05-20T04:08:12.359Z,27.95
2019-05-20T04:10:16.259Z,26.27
2019-05-20T04:12:26.063Z,32.30
2019-05-20T04:14:29.979Z,22.07
2019-05-20T04:16:33.864Z,31.70
2019-05-20T04:18:37.815Z,28.10
2019-05-20T04:20:41.931Z,30.43
2019-05-20T04:22:45.977Z,29.60
2019-05-20T04:24:51.887Z,27.00
2019-05-20T04:27:00.708Z,30.68
2019-05-20T04:29:04.714Z,31.85
2019-05-20T04:31:08.825Z,27.37
2019-05-20T04:33:14.748Z,26.27
2019-05-20T04:35:23.180Z,31.17
2019-05-20T04:37:28.222Z,28.77
2019-05-20T04:39:32.333Z,30.80
2019-05-20T04:41:36.465Z,29.90
2019-05-20T04:43:42.088Z,25.92
2019-05-20T04:45:46.372Z,27.52
2019-05-20T04:47:50.412Z,32.28
2019-05-20T04:49:54.418Z,29.23
2019-05-20T04:51:58.435Z,25.90
2019-05-20T04:54:05.400Z,29.87
2019-05-20T04:56:09.512Z,27.17
2019-05-20T04:58:16.507Z,25.10
2019-05-20T05:00:39.657Z,25.10
2019-05-20T05:02:44.037Z,25.48
2019-05-20T05:04:48.163Z,30.43
2019-05-20T05:06:52.079Z,30.75
2019-05-20T05:08:55.987Z,25.10
2019-05-20T05:11:00.094Z,31.62
2019-05-20T05:13:04.082Z,28.00
2019-05-20T05:15:10.171Z,27.70
2019-05-20T05:17:16.760Z,27.30
2019-05-20T05:19:20.714Z,28.80
2019-05-20T05:21:24.840Z,27.95
2019-05-20T05:23:28.858Z,27.75
2019-05-20T05:25:33.063Z,34.05
2019-05-20T05:27:37.176Z,23.67
2019-05-20T05:29:41.181Z,31.60
2019-05-20T05:31:45.084Z,27.13
2019-05-20T05:33:49.013Z,30.70
2019-05-20T05:35:53.857Z,35.28
2019-05-20T05:38:02.025Z,28.38
2019-05-20T05:40:08.232Z,31.07
2019-05-20T05:42:12.263Z,25.30
2019-05-20T05:44:16.129Z,32.73
2019-05-20T05:46:21.539Z,27.52
2019-05-20T05:48:25.477Z,30.10
2019-05-20T05:50:29.551Z,31.17
2019-05-20T05:52:35.095Z,24.27
2019-05-20T05:54:39.115Z,28.52
2019-05-20T05:56:43.452Z,29.98
2019-05-20T05:58:49.167Z,32.55
2019-05-20T06:00:53.190Z,29.63
2019-05-20T06:02:59.152Z,34.10
2019-05-20T06:05:03.155Z,29.15
2019-05-20T06:07:07.042Z,24.12
2019-05-20T06:09:10.949Z,30.27
2019-05-20T06:11:14.954Z,26.25
2019-05-20T06:13:18.834Z,31.27
2019-05-20T06:15:23.379Z,25.77
2019-05-20T06:17:27.554Z,27.05
2019-05-20T06:19:31.494Z,31.40
2019-05-20T06:21:35.534Z,33.70
2019-05-20T06:23:39.841Z,26.60
2019-05-20T06:25:43.927Z,31.30
2019-05-20T06:27:48.187Z,31.35
2019-05-20T06:29:52.366Z,37.98
2019-05-20T06:31:56.298Z,25.88
2019-05-20T06:34:00.475Z,33.08
2019-05-20T06:36:04.402Z,34.13
2019-05-20T06:38:10.113Z,33.20
2019-05-20T06:40:14.328Z,26.70
2019-05-20T06:42:18.184Z,30.52
2019-05-20T06:44:22.176Z,31.90
2019-05-20T06:46:26.161Z,33.23
2019-05-20T06:48:30.164Z,32.30
2019-05-20T06:50:34.174Z,33.78
2019-05-20T06:52:38.095Z,29.70
2019-05-20T06:54:42.227Z,25.60
2019-05-20T06:56:46.583Z,30.25
2019-05-20T06:58:51.014Z,29.57
2019-05-20T07:00:54.885Z,35.05
2019-05-20T07:02:58.751Z,38.23
2019-05-20T07:05:02.631Z,37.13
2019-05-20T07:07:19.864Z,33.10
2019-05-20T07:09:12.186Z,33.28
2019-05-20T07:11:16.298Z,37.17
2019-05-20T07:13:20.235Z,31.77
2019-05-20T07:15:24.310Z,41.90
2019-05-20T07:17:28.324Z,39.10
2019-05-20T07:19:35.294Z,38.75
2019-05-20T07:21:39.475Z,34.33
2019-05-20T07:23:43.374Z,29.98
2019-05-20T07:25:47.363Z,34.90
2019-05-20T07:27:51.327Z,35.00
2019-05-20T07:29:55.435Z,29.80
2019-05-20T07:31:59.393Z,36.00
2019-05-20T07:34:03.367Z,40.50
2019-05-20T07:36:09.977Z,33.02
2019-05-20T07:38:12.897Z,35.60
2019-05-20T07:40:19.775Z,35.00
2019-05-20T07:42:25.323Z,33.75
2019-05-20T07:44:29.221Z,36.23
2019-05-20T07:46:33.418Z,32.17
2019-05-20T07:48:38.219Z,32.88
2019-05-20T07:50:45.547Z,31.80
2019-05-20T07:52:49.617Z,33.28
2019-05-20T07:54:54.735Z,34.45
2019-05-20T07:57:01.605Z,34.88
2019-05-20T07:59:07.616Z,32.67
2019-05-20T08:01:11.536Z,34.35
2019-05-20T08:03:15.503Z,29.80
2019-05-20T08:05:19.335Z,31.90
2019-05-20T08:07:29.916Z,37.05
2019-05-20T08:09:28.888Z,38.60
2019-05-20T08:11:32.797Z,31.85
2019-05-20T08:13:36.764Z,32.70
2019-05-20T08:15:40.689Z,35.80
2019-05-20T08:17:44.571Z,43.23
2019-05-20T08:19:49.027Z,36.42
2019-05-20T08:21:53.034Z,34.83
2019-05-20T08:23:57.041Z,29.87
2019-05-20T08:26:01.052Z,35.15
2019-05-20T08:28:05.162Z,34.15
2019-05-20T08:30:13.698Z,36.63
2019-05-20T08:32:15.475Z,35.50
2019-05-20T08:34:19.485Z,33.38
2019-05-20T08:36:23.444Z,35.75
2019-05-20T08:38:27.450Z,35.35
2019-05-20T08:40:31.457Z,32.98
2019-05-20T08:42:37.885Z,38.53
2019-05-20T08:44:41.523Z,39.40
2019-05-20T08:46:47.737Z,34.92
2019-05-20T08:48:51.773Z,35.63
2019-05-20T08:50:55.797Z,37.23
2019-05-20T08:53:07.619Z,35.63
2019-05-20T08:55:11.627Z,32.58
2019-05-20T08:57:15.604Z,34.23
2019-05-20T08:59:20.028Z,37.40
2019-05-20T09:01:23.917Z,36.20
2019-05-20T09:03:30.343Z,39.67
2019-05-20T09:05:33.667Z,32.38
2019-05-20T09:07:37.676Z,37.38
2019-05-20T09:09:42.744Z,38.08
2019-05-20T09:11:47.956Z,34.90
2019-05-20T09:13:52.431Z,36.90
2019-05-20T09:15:56.484Z,36.77
2019-05-20T09:18:01.933Z,30.88
2019-05-20T09:20:07.434Z,34.73
2019-05-20T09:22:11.321Z,32.17
2019-05-20T09:24:18.627Z,36.28
2019-05-20T09:26:20.824Z,31.42
2019-05-20T09:28:25.034Z,37.80
2019-05-20T09:30:28.986Z,46.08
2019-05-20T09:32:33.140Z,42.23
2019-05-20T09:34:37.264Z,39.40
2019-05-20T09:36:41.278Z,42.45
2019-05-20T09:38:45.486Z,38.23
2019-05-20T09:40:49.881Z,42.10
2019-05-20T09:42:53.809Z,42.60
2019-05-20T09:45:01.227Z,43.68
2019-05-20T09:47:03.194Z,41.80
2019-05-20T09:49:07.367Z,36.40
2019-05-20T09:51:11.291Z,44.65
2019-05-20T09:53:15.133Z,39.13
2019-05-20T09:55:19.032Z,40.92
2019-05-20T09:57:24.455Z,38.48
2019-05-20T09:59:42.100Z,40.25
2019-05-20T10:01:33.894Z,43.28
2019-05-20T10:03:37.771Z,40.00
2019-05-20T10:05:41.622Z,46.65
2019-05-20T10:07:45.688Z,39.45
2019-05-20T10:09:49.815Z,39.35
2019-05-20T10:11:53.713Z,46.53
2019-05-20T10:13:57.811Z,45.95
2019-05-20T10:16:01.873Z,42.93
2019-05-20T10:18:05.931Z,42.90
2019-05-20T10:20:11.176Z,44.90
2019-05-20T10:22:15.377Z,47.30
2019-05-20T10:24:19.390Z,49.80
2019-05-20T10:26:23.404Z,52.73
2019-05-20T10:28:27.507Z,55.60
2019-05-20T10:30:31.516Z,47.98
2019-05-20T10:32:38.594Z,49.40
2019-05-20T10:34:42.515Z,50.30
2019-05-20T10:36:46.478Z,51.85
2019-05-20T10:38:58.701Z,53.92
2019-05-20T10:40:56.103Z,52.48
2019-05-20T10:42:59.990Z,55.83
2019-05-20T10:45:07.178Z,47.98
2019-05-20T10:47:11.410Z,57.30
2019-05-20T10:49:15.311Z,54.60
2019-05-20T10:51:19.283Z,56.48
2019-05-20T10:53:23.227Z,48.10
2019-05-20T10:55:27.086Z,51.60
2019-05-20T10:57:31.088Z,49.80
2019-05-20T10:59:35.092Z,44.05
2019-05-20T11:01:38.996Z,37.75
2019-05-20T11:03:43.066Z,38.25
2019-05-20T11:05:47.011Z,37.10
2019-05-20T11:07:51.037Z,33.98
2019-05-20T11:09:55.231Z,35.83
2019-05-20T11:12:01.803Z,34.98
2019-05-20T11:14:05.917Z,35.75
2019-05-20T11:16:11.556Z,32.08
2019-05-20T11:18:15.498Z,26.77
2019-05-20T11:20:19.573Z,23.55
2019-05-20T11:22:23.684Z,18.40
2019-05-20T11:24:27.735Z,19.73
2019-05-20T11:26:31.908Z,19.62
2019-05-20T11:28:36.014Z,19.12
2019-05-20T11:30:39.857Z,19.52
2019-05-20T11:32:43.910Z,23.42
2019-05-20T11:34:47.982Z,24.80
2019-05-20T11:36:51.989Z,20.35
2019-05-20T11:38:56.003Z,23.38
2019-05-20T11:40:59.954Z,28.30
2019-05-20T11:43:03.965Z,24.12
2019-05-20T11:45:11.757Z,21.05
2019-05-20T11:47:15.974Z,23.18
2019-05-20T11:49:19.860Z,14.00
2019-05-20T11:51:23.751Z,13.03
2019-05-20T11:53:27.790Z,10.45
2019-05-20T11:55:31.927Z,9.70
2019-05-20T11:57:36.084Z,8.25
2019-05-20T11:59:39.943Z,6.92
2019-05-20T12:01:44.028Z,6.12
2019-05-20T12:03:48.034Z,6.00
2019-05-20T12:05:52.254Z,4.80
2019-05-20T12:07:56.269Z,5.12
2019-05-20T12:10:00.478Z,4.90
2019-05-20T12:12:04.580Z,3.33
2019-05-20T12:14:08.466Z,2.40
2019-05-20T12:16:12.489Z,4.10
2019-05-20T12:18:16.498Z,1.72
2019-05-20T12:20:20.638Z,1.27
2019-05-20T12:22:24.528Z,4.45
2019-05-20T12:24:28.811Z,4.97
2019-05-20T12:26:32.788Z,1.50
2019-05-20T12:28:37.052Z,2.75
2019-05-20T12:30:41.181Z,3.20
2019-05-20T12:32:45.254Z,2.42
2019-05-20T12:34:49.177Z,3.90
2019-05-20T12:36:53.691Z,1.60
2019-05-20T12:38:58.150Z,2.60
2019-05-20T12:41:02.351Z,3.35
2019-05-20T12:43:06.641Z,2.05
2019-05-20T12:45:12.048Z,1.85
2019-05-20T12:47:16.159Z,2.12
2019-05-20T12:49:20.639Z,4.05
2019-05-20T12:51:24.931Z,5.83
2019-05-20T12:53:29.218Z,2.22
2019-05-20T12:55:33.331Z,1.50
2019-05-20T12:57:37.359Z,3.10
2019-05-20T12:59:41.569Z,1.90
2019-05-20T13:01:45.777Z,2.47
2019-05-20T13:03:49.652Z,4.42
2019-05-20T13:05:53.691Z,2.42
2019-05-20T13:07:57.903Z,2.62
2019-05-20T13:10:03.213Z,1.72
2019-05-20T13:12:07.709Z,2.08
2019-05-20T13:14:11.640Z,2.60
2019-05-20T13:16:15.569Z,1.75
2019-05-20T13:18:19.422Z,2.67
2019-05-20T13:20:25.367Z,2.70
2019-05-20T13:22:29.042Z,2.95
2019-05-20T13:24:33.037Z,2.02
2019-05-20T13:26:37.053Z,4.55
2019-05-20T13:28:41.256Z,2.17
2019-05-20T13:30:45.982Z,1.95
2019-05-20T13:32:50.090Z,2.33
2019-05-20T13:34:53.982Z,2.58
2019-05-20T13:36:57.891Z,6.53
2019-05-20T13:39:01.806Z,1.87
2019-05-20T13:41:05.740Z,2.75
2019-05-20T13:43:09.599Z,2.27
2019-05-20T13:45:14.585Z,2.62
2019-05-20T13:47:18.662Z,2.55
2019-05-20T13:49:22.667Z,3.72
2019-05-20T13:51:26.672Z,3.25
2019-05-20T13:53:30.733Z,2.60
2019-05-20T13:55:34.994Z,2.25
2019-05-20T13:57:40.017Z,3.80
2019-05-20T13:59:44.059Z,2.20
2019-05-20T14:01:48.083Z,2.45
2019-05-20T14:03:52.058Z,1.82
2019-05-20T14:05:56.056Z,3.25
2019-05-20T14:07:59.952Z,2.15
2019-05-20T14:10:12.365Z,2.67
2019-05-20T14:12:16.477Z,2.25
2019-05-20T14:14:20.333Z,3.52
2019-05-20T14:16:24.167Z,3.08
2019-05-20T14:18:28.065Z,2.02
2019-05-20T14:20:31.889Z,4.50
2019-05-20T14:22:35.746Z,2.33
2019-05-20T14:24:39.826Z,2.05
2019-05-20T14:26:44.003Z,2.02
2019-05-20T14:28:48.053Z,3.27
2019-05-20T14:30:52.031Z,1.72
2019-05-20T14:32:56.351Z,1.50
2019-05-20T14:35:00.367Z,3.25
2019-05-20T14:37:04.464Z,1.55
2019-05-20T14:39:10.138Z,2.72
2019-05-20T14:41:21.710Z,2.33
2019-05-20T14:43:19.663Z,3.08
2019-05-20T14:45:23.670Z,3.02
2019-05-20T14:47:27.678Z,1.60
2019-05-20T14:49:31.693Z,4.20
2019-05-20T14:51:38.663Z,2.40
2019-05-20T14:53:45.434Z,4.58
2019-05-20T14:55:49.646Z,2.17
2019-05-20T14:57:56.521Z,2.87
2019-05-20T15:00:04.716Z,2.17
2019-05-20T15:02:08.718Z,5.80
2019-05-20T15:04:12.602Z,4.70
2019-05-20T15:06:16.503Z,3.40
2019-05-20T15:08:20.354Z,4.83
2019-05-20T15:10:24.512Z,5.28
2019-05-20T15:12:28.672Z,4.25
2019-05-20T15:14:32.595Z,2.25
2019-05-20T15:16:36.589Z,4.35
2019-05-20T15:18:40.446Z,14.93
2019-05-20T15:20:45.866Z,3.40
2019-05-20T15:22:49.821Z,12.58
2019-05-20T15:24:53.911Z,28.07
2019-05-20T15:26:58.110Z,5.40
2019-05-20T15:29:03.372Z,11.65
2019-05-20T15:31:08.025Z,4.22
2019-05-20T15:33:12.048Z,3.45
2019-05-20T15:35:19.215Z,32.98
2019-05-20T15:37:23.224Z,38.55
2019-05-20T15:39:27.241Z,11.75
2019-05-20T15:41:31.252Z,17.90
2019-05-20T15:43:36.593Z,6.50
2019-05-20T15:45:40.662Z,2.67
2019-05-20T15:47:44.792Z,4.05
2019-05-20T15:49:48.799Z,38.25
2019-05-20T15:51:52.808Z,7.92
2019-05-20T15:53:56.916Z,15.03
2019-05-20T15:56:00.921Z,27.95
2019-05-20T15:58:04.935Z,12.25
2019-05-20T16:00:09.557Z,15.20
2019-05-20T16:02:13.590Z,8.00
2019-05-20T16:04:17.779Z,20.55
2019-05-20T16:06:21.883Z,33.92
2019-05-20T16:08:25.904Z,3.67
2019-05-20T16:10:30.015Z,26.70
2019-05-20T16:12:34.459Z,6.50
2019-05-20T16:14:41.416Z,14.70
2019-05-20T16:16:47.043Z,10.10
2019-05-20T16:18:50.907Z,15.90
2019-05-20T16:20:54.862Z,16.12
2019-05-20T16:23:01.930Z,8.73
2019-05-20T16:25:09.119Z,5.17
2019-05-20T16:27:13.230Z,8.75
2019-05-20T16:29:17.334Z,8.80
2019-05-20T16:31:21.544Z,7.67
2019-05-20T16:33:25.452Z,3.95
2019-05-20T16:35:32.233Z,6.40
2019-05-20T16:37:36.242Z,7.22
2019-05-20T16:39:40.136Z,3.50
2019-05-20T16:41:44.244Z,6.67
2019-05-20T16:43:48.150Z,2.50
2019-05-20T16:45:53.582Z,3.25
2019-05-20T16:47:57.496Z,2.25
2019-05-20T16:50:01.506Z,3.17
2019-05-20T16:52:05.802Z,2.77
2019-05-20T16:54:09.967Z,3.33
2019-05-20T16:56:14.036Z,4.45
2019-05-20T16:58:18.041Z,3.80
2019-05-20T17:00:31.261Z,4.35
2019-05-20T17:02:29.249Z,2.50
2019-05-20T17:04:33.140Z,5.12
2019-05-20T17:06:37.047Z,5.03
2019-05-20T17:08:41.258Z,4.58
2019-05-20T17:10:45.409Z,4.90
2019-05-20T17:12:49.785Z,2.65
2019-05-20T17:14:53.911Z,2.37
2019-05-20T17:16:58.281Z,5.78
2019-05-20T17:19:07.377Z,4.22
2019-05-20T17:21:12.024Z,4.72
2019-05-20T17:23:16.828Z,3.67
2019-05-20T17:25:21.577Z,4.75
2019-05-20T17:27:25.727Z,4.92
2019-05-20T17:29:34.568Z,7.47
2019-05-20T17:31:39.806Z,6.20
2019-05-20T17:33:46.232Z,6.78
2019-05-20T17:35:52.719Z,8.03
2019-05-20T17:37:56.734Z,4.12
2019-05-20T17:40:00.550Z,3.58
2019-05-20T17:42:06.080Z,5.12
2019-05-20T17:44:11.030Z,3.60
2019-05-20T17:46:15.826Z,4.67
2019-05-20T17:48:19.789Z,5.80
2019-05-20T17:50:23.836Z,5.97
2019-05-20T17:52:27.843Z,5.58
2019-05-20T17:54:31.854Z,5.25
2019-05-20T17:56:36.067Z,5.60
2019-05-20T17:58:39.970Z,4.08
2019-05-20T18:00:44.017Z,3.90
2019-05-20T18:02:47.986Z,4.50
2019-05-20T18:04:51.947Z,5.62
2019-05-20T18:06:55.903Z,4.08
2019-05-20T18:09:01.574Z,7.30
2019-05-20T18:11:05.665Z,10.08
2019-05-20T18:13:09.502Z,7.20
2019-05-20T18:15:13.946Z,17.77
2019-05-20T18:17:17.851Z,11.00
2019-05-20T18:19:21.897Z,12.33
2019-05-20T18:21:25.796Z,16.20
2019-05-20T18:23:29.798Z,16.20
2019-05-20T18:25:33.692Z,12.45
2019-05-20T18:27:38.431Z,7.10
2019-05-20T18:29:42.970Z,13.15
2019-05-20T18:31:46.838Z,7.47
2019-05-20T18:33:50.866Z,12.05
2019-05-20T18:35:54.772Z,11.80
2019-05-20T18:38:02.546Z,28.30
2019-05-20T18:40:15.005Z,10.32
2019-05-20T18:42:22.961Z,7.22
2019-05-20T18:44:27.041Z,8.20
2019-05-20T18:46:30.927Z,7.45
2019-05-20T18:48:34.844Z,11.75
2019-05-20T18:50:38.799Z,9.38
2019-05-20T18:52:42.807Z,9.70
2019-05-20T18:54:46.837Z,12.33
2019-05-20T18:56:50.933Z,17.80
2019-05-20T18:58:54.863Z,12.70
2019-05-20T19:00:58.719Z,6.33
2019-05-20T19:03:02.741Z,9.10
2019-05-20T19:05:08.654Z,8.78
2019-05-20T19:07:12.629Z,11.57
2019-05-20T19:09:16.603Z,14.05
2019-05-20T19:11:20.615Z,9.75
2019-05-20T19:13:24.498Z,7.00
2019-05-20T19:15:30.156Z,13.10
2019-05-20T19:17:36.924Z,8.38
2019-05-20T19:19:41.050Z,7.58
2019-05-20T19:21:44.964Z,17.77
2019-05-20T19:23:48.964Z,9.75
2019-05-20T19:25:52.873Z,6.70
2019-05-20T19:27:56.876Z,7.78
2019-05-20T19:30:02.295Z,6.10
2019-05-20T19:32:07.038Z,6.92
2019-05-20T19:34:10.951Z,6.72
2019-05-20T19:36:14.970Z,7.10
2019-05-20T19:38:19.076Z,6.37
2019-05-20T19:40:22.940Z,8.53
2019-05-20T19:42:26.841Z,6.42
2019-05-20T19:44:30.761Z,6.70
2019-05-20T19:46:34.683Z,6.95
2019-05-20T19:48:38.741Z,7.67
2019-05-20T19:50:42.802Z,7.17
2019-05-20T19:52:46.725Z,6.83
2019-05-20T19:54:50.721Z,6.40
2019-05-20T19:56:54.703Z,9.15
2019-05-20T19:58:58.629Z,6.28
2019-05-20T20:01:02.537Z,9.08
2019-05-20T20:03:06.434Z,7.60
2019-05-20T20:05:10.449Z,9.83
2019-05-20T20:07:15.345Z,8.55
2019-05-20T20:09:19.382Z,6.85
2019-05-20T20:11:24.867Z,8.23
2019-05-20T20:13:33.490Z,7.83
2019-05-20T20:15:35.880Z,8.05
2019-05-20T20:17:39.820Z,8.40
2019-05-20T20:19:43.728Z,9.95
2019-05-20T20:21:47.633Z,10.65
2019-05-20T20:23:51.634Z,10.25
2019-05-20T20:25:57.315Z,9.40
2019-05-20T20:28:02.742Z,10.93
2019-05-20T20:30:08.396Z,10.05
2019-05-20T20:32:12.238Z,15.68
2019-05-20T20:34:18.943Z,11.90
2019-05-20T20:36:22.931Z,10.65
2019-05-20T20:38:26.863Z,14.98
2019-05-20T20:40:30.758Z,8.48
2019-05-20T20:42:34.664Z,14.07
2019-05-20T20:44:38.803Z,16.12
2019-05-20T20:46:42.672Z,10.60
2019-05-20T20:48:46.788Z,9.50
2019-05-20T20:50:50.699Z,10.10
2019-05-20T20:52:54.803Z,10.08
2019-05-20T20:54:58.668Z,12.07
2019-05-20T20:57:02.717Z,8.88
2019-05-20T20:59:06.645Z,10.03
2019-05-20T21:01:10.632Z,13.18
2019-05-20T21:03:14.540Z,10.72
2019-05-20T21:05:18.644Z,11.55
2019-05-20T21:07:22.550Z,13.48
2019-05-20T21:09:26.596Z,14.78
2019-05-20T21:11:30.546Z,13.30
2019-05-20T21:13:34.522Z,13.35
2019-05-20T21:15:38.583Z,14.80
2019-05-20T21:17:42.459Z,11.53
2019-05-20T21:19:46.390Z,11.93
2019-05-20T21:21:50.405Z,14.75
2019-05-20T21:23:54.293Z,13.83
2019-05-20T21:25:58.213Z,10.95
2019-05-20T21:28:02.042Z,10.82
2019-05-20T21:30:08.484Z,11.12
2019-05-20T21:32:12.339Z,10.98
2019-05-20T21:34:16.294Z,11.68
2019-05-20T21:36:20.302Z,11.73
2019-05-20T21:38:24.309Z,16.55
2019-05-20T21:40:28.226Z,12.68
2019-05-20T21:42:32.331Z,14.33
2019-05-20T21:44:36.319Z,11.75
2019-05-20T21:46:40.641Z,13.65
2019-05-20T21:48:44.474Z,10.82
2019-05-20T21:50:48.433Z,11.08
2019-05-20T21:52:52.465Z,11.10
2019-05-20T21:54:56.507Z,12.85
2019-05-20T21:57:00.371Z,11.80
2019-05-20T21:59:04.485Z,12.58
2019-05-20T22:01:08.592Z,11.08
2019-05-20T22:03:23.860Z,11.38
2019-05-20T22:05:18.348Z,13.05
2019-05-20T22:07:22.457Z,10.75
2019-05-20T22:09:26.365Z,11.05
2019-05-20T22:11:30.290Z,11.35
2019-05-20T22:13:34.087Z,10.98
2019-05-20T22:15:38.086Z,13.68
2019-05-20T22:17:42.070Z,11.90
2019-05-20T22:19:46.094Z,14.28
2019-05-20T22:22:06.714Z,10.35
2019-05-20T22:24:10.697Z,11.33
2019-05-20T22:26:14.706Z,10.68
2019-05-20T22:28:18.708Z,11.80
2019-05-20T22:30:22.857Z,14.68
2019-05-20T22:32:26.838Z,13.15
2019-05-20T22:34:30.838Z,13.30
2019-05-20T22:36:34.778Z,11.28
2019-05-20T22:38:39.917Z,12.25
2019-05-20T22:40:44.192Z,12.37
2019-05-20T22:42:48.104Z,11.03
2019-05-20T22:44:52.343Z,11.18
2019-05-20T22:46:56.420Z,10.30
2019-05-20T22:49:01.051Z,10.72
2019-05-20T22:51:05.028Z,13.60
2019-05-20T22:53:08.934Z,12.03
2019-05-20T22:55:13.392Z,12.35
2019-05-20T22:57:18.080Z,13.83
2019-05-20T22:59:22.052Z,12.75
2019-05-20T23:01:25.997Z,12.60
2019-05-20T23:03:29.931Z,10.55
2019-05-20T23:05:34.024Z,11.38
2019-05-20T23:07:37.903Z,9.90
2019-05-20T23:09:42.100Z,13.40
2019-05-20T23:11:46.969Z,12.40
2019-05-20T23:13:50.875Z,10.60
2019-05-20T23:15:55.807Z,10.53
2019-05-20T23:18:00.947Z,9.70
2019-05-20T23:20:06.609Z,11.95
2019-05-20T23:22:10.847Z,11.00
2019-05-20T23:24:15.255Z,11.30
2019-05-20T23:26:19.067Z,9.78
2019-05-20T23:28:24.656Z,11.35
2019-05-20T23:30:28.504Z,11.43
2019-05-20T23:32:32.575Z,10.70
2019-05-20T23:34:38.639Z,9.40
2019-05-20T23:36:42.639Z,9.78
2019-05-20T23:38:46.545Z,10.88
2019-05-20T23:40:50.594Z,10.75
2019-05-20T23:42:56.022Z,14.43
2019-05-20T23:45:00.001Z,10.48
2019-05-20T23:47:04.223Z,10.80
2019-05-20T23:49:08.160Z,10.28
2019-05-20T23:51:12.848Z,10.00
2019-05-20T23:53:17.525Z,10.63
2019-05-20T23:55:21.435Z,10.65
2019-05-20T23:57:25.415Z,13.48
2019-05-20T23:59:30.697Z,10.23
